Latest Weather Observations for Bombala AWS

IDN60801

Issued at 9:43 am EST Wednesday 22 September 2021 (issued every 10 minutes, with the page automatically refreshed every 10 minutes)

About weather observations | Map of weather stations | Latest weather observations for NSW | Other Formats
Station Details ID: 070328 Name: BOMBALA AWS Lat: -37.00 Lon: 149.23 Height: 760.5 m
Data from the previous 72 hours. | See also: Recent months at Bombala AWS
Date/Time
EST
Temp
°C
App
Temp
°C
Dew
Point
°C
Rel
Hum
%
Delta-T
°C
Wind Press
QNH
hPa
Press
MSL
hPa
Rain since
9am
mm
Dir  Spd
km/h
Gust
km/h
Spd
kts
Gust
kts
22/09:30am 10.2 4.3 5.6 73 2.2 WSW 26 35 14 19 1023.2 1023.3 0.0
22/09:00am 9.6 3.6 5.4 75 2.0 WSW 26 37 14 20 1023.2 1023.3 0.2
22/08:30am 8.6 3.3 5.0 78 1.7 WSW 22 32 12 17 1023.2 1023.3 0.2
22/08:00am 7.5 2.7 4.6 82 1.3 WSW 19 28 10 15 1023.1 1023.2 0.2
22/07:30am 7.1 2.6 4.1 81 1.4 SW 17 28 9 15 1022.8 1022.8 0.2
22/07:00am 6.5 3.1 4.2 85 1.0 SW 11 20 6 11 1022.6 1022.6 0.2
22/06:30am 6.0 3.0 4.0 87 0.9 SW 9 19 5 10 1022.3 1022.4 0.2
22/06:00am 6.0 1.9 4.5 90 0.7 WSW 15 24 8 13 1021.9 1022.0 0.2
22/05:30am 5.7 1.7 4.7 93 0.5 WSW 15 19 8 10 1021.8 1021.9 0.2
22/05:00am 5.2 1.2 4.8 97 0.2 W 15 22 8 12 1021.7 1021.8 0.2
22/04:30am 4.9 0.8 4.6 98 0.1 WNW 15 20 8 11 1021.6 1021.6 0.2
22/04:00am 4.7 1.7 4.1 96 0.3 NW 9 15 5 8 1021.5 1021.5 0.2
22/03:30am 4.6 1.1 3.7 94 0.4 WNW 11 17 6 9 1021.4 1021.4 0.2
22/03:00am 4.5 -0.7 3.5 93 0.4 W 20 30 11 16 1021.6 1021.6 0.2
22/02:30am 4.4 0.2 3.7 95 0.3 WNW 15 24 8 13 1022.0 1022.1 0.2
22/02:00am 3.6 -1.6 2.7 94 0.4 W 19 30 10 16 1022.0 1022.1 0.2
22/01:30am 3.8 -1.4 2.5 91 0.5 W 19 28 10 15 1022.7 1022.7 0.2
22/01:00am 3.9 -1.3 2.6 91 0.5 W 19 26 10 14 1022.9 1023.0 0.2
22/12:30am 4.3 -1.4 3.0 91 0.6 WSW 22 32 12 17 1023.2 1023.3 0.2
22/12:00am 4.3 -1.8 3.0 91 0.6 W 24 28 13 15 1023.5 1023.6 0.2
 
Date/Time
EST
Temp
°C
App
Temp
°C
Dew
Point
°C
Rel
Hum
%
Delta-T
°C
Wind Press
QNH
hPa
Press
MSL
hPa
Rain since
9am
mm
Dir  Spd
km/h
Gust
km/h
Spd
kts
Gust
kts
21/11:30pm 4.4 -1.3 2.6 88 0.8 WSW 22 30 12 16 1023.6 1023.7 0.2
21/11:00pm 4.4 -0.5 2.3 86 0.9 WSW 17 30 9 16 1023.3 1023.4 0.2
21/10:30pm 4.2 0.1 2.1 86 0.9 WSW 13 20 7 11 1023.4 1023.5 0.2
21/10:00pm 4.4 -1.8 1.9 84 1.0 WSW 24 35 13 19 1023.4 1023.5 0.2
21/09:30pm 4.5 -2.1 1.9 83 1.1 WSW 26 41 14 22 1023.3 1023.4 0.2
21/09:00pm 4.5 -2.6 1.5 81 1.2 WSW 28 39 15 21 1023.3 1023.4 0.2
21/08:30pm 4.3 -2.4 1.5 82 1.2 WSW 26 33 14 18 1023.3 1023.4 0.2
21/08:00pm 3.9 -2.8 1.4 84 1.0 WSW 26 35 14 19 1023.1 1023.2 0.2
21/07:30pm 3.6 -1.9 1.6 87 0.8 WSW 20 33 11 18 1022.9 1023.0 0.2
21/07:00pm 3.8 -3.1 2.3 90 0.6 WSW 28 39 15 21 1022.3 1022.4 0.2
21/06:30pm 3.4 -1.9 1.9 90 0.6 WSW 19 26 10 14 1022.0 1022.1 0.2
21/06:00pm 3.9 -2.0 1.9 87 0.8 WSW 22 32 12 17 1021.7 1021.8 0.2
21/05:30pm 4.3 -1.6 1.7 83 1.1 SW 22 30 12 16 1021.3 1021.3 0.2
21/05:00pm 5.5 0.1 2.5 81 1.3 SW 20 30 11 16 1021.3 1021.3 0.2
21/04:30pm 6.8 0.9 1.7 70 2.2 SW 22 32 12 17 1020.7 1020.8 0.2
21/04:00pm 5.8 -1.3 1.2 72 1.9 SW 28 35 15 19 1020.6 1020.7 0.2
21/03:30pm 7.0 -2.2 1.5 68 2.3 WSW 39 50 21 27 1020.1 1020.1 0.2
21/03:00pm 6.5 -2.4 0.6 66 2.4 SW 37 50 20 27 1020.2 1020.2 0.2
21/02:56pm 6.7 -0.5 0.4 64 2.6 SW 28 50 15 27 1020.1 1020.1 0.2
21/02:30pm 7.1 0.8 1.4 67 2.4 SSW 24 35 13 19 1020.0 1020.0 0.2
21/02:00pm 8.6 0.5 1.3 60 3.1 SW 33 46 18 25 1019.6 1019.6 0.2
21/01:30pm 7.5 -1.7 1.1 64 2.7 SW 39 57 21 31 1019.6 1019.6 0.2
21/01:15pm 7.2 -2.0 1.1 65 2.6 SW 39 59 21 32 1019.3 1019.3 0.2
21/01:00pm 7.2 -0.7 2.1 70 2.2 SW 33 50 18 27 1019.1 1019.1 0.2
21/12:30pm 6.8 0.2 2.1 72 2.0 SSW 26 33 14 18 1019.4 1019.5 0.2
21/12:00pm 6.5 -1.2 2.4 75 1.8 SW 32 43 17 23 1019.4 1019.5 0.2
21/11:30am 5.8 -1.4 3.1 83 1.2 SW 30 43 16 23 1019.6 1019.6 0.2
21/11:00am 5.8 -0.9 3.5 85 1.0 SSW 28 37 15 20 1019.2 1019.2 0.2
21/10:30am 5.8 -1.0 3.1 83 1.2 SW 28 35 15 19 1018.9 1018.9 0.2
21/10:00am 4.7 -1.8 2.9 88 0.8 SW 26 35 14 19 1018.6 1018.6 0.2
21/09:30am 4.8 -0.3 3.9 94 0.4 WSW 20 26 11 14 1018.0 1018.0 0.0
21/09:00am 3.3 -1.5 2.4 94 0.4 WSW 17 24 9 13 1017.7 1017.7 3.6
21/08:30am 2.5 -2.8 1.6 94 0.4 SW 19 30 10 16 1017.3 1017.3 3.6
21/08:00am 2.4 -3.2 1.5 94 0.4 SW 20 26 11 14 1016.8 1016.7 3.4
21/07:30am 2.6 -3.0 1.3 91 0.5 WSW 20 28 11 15 1016.0 1015.9 3.2
21/07:00am 1.3 -4.2 0.4 94 0.3 WSW 19 26 10 14 1015.1 1015.1 3.2
21/06:30am 1.4 -4.7 0.2 92 0.5 WSW 22 32 12 17 1014.6 1014.5 3.2
21/06:00am 1.4 -4.4 0.1 91 0.5 WSW 20 26 11 14 1014.0 1013.9 3.2
21/05:30am 2.0 -3.8 0.2 88 0.7 W 20 30 11 16 1013.2 1013.1 3.2
21/05:00am 1.7 -4.1 -0.2 87 0.7 WSW 20 30 11 16 1012.9 1012.8 3.2
21/04:30am 2.0 -5.0 -0.4 84 0.9 WSW 26 35 14 19 1012.6 1012.4 3.2
21/04:00am 1.8 -4.0 -0.3 86 0.8 WSW 20 28 11 15 1012.6 1012.4 3.2
21/03:30am 1.8 -3.4 0.0 88 0.7 WSW 17 24 9 13 1012.3 1012.2 3.2
21/03:00am 1.6 -3.6 0.1 90 0.6 WSW 17 24 9 13 1012.2 1012.1 3.2
21/02:30am 1.6 -4.0 0.1 90 0.6 WSW 19 28 10 15 1012.3 1012.2 3.2
21/02:00am 1.1 -3.3 0.4 95 0.3 W 13 19 7 10 1012.2 1012.1 3.2
21/01:30am 0.5 -1.5 -0.2 95 0.3 CALM 0 0 0 0 1012.4 1012.3 3.2
21/01:00am 0.8 -4.8 -0.1 94 0.3 W 19 24 10 13 1012.0 1011.9 3.2
21/12:30am 1.1 -4.6 0.4 95 0.3 WSW 20 26 11 14 1012.0 1011.9 3.2
21/12:00am 0.5 -3.2 -0.2 95 0.3 WSW 9 13 5 7 1012.0 1011.9 3.2
 
Date/Time
EST
Temp
°C
App
Temp
°C
Dew
Point
°C
Rel
Hum
%
Delta-T
°C
Wind Press
QNH
hPa
Press
MSL
hPa
Rain since
9am
mm
Dir  Spd
km/h
Gust
km/h
Spd
kts
Gust
kts
20/11:30pm 0.9 -2.3 0.5 97 0.2 W 7 9 4 5 1011.9 1011.8 3.2
20/11:00pm 0.8 -3.2 0.2 96 0.2 W 11 17 6 9 1011.8 1011.7 3.2
20/10:30pm 1.4 -3.4 0.5 94 0.4 W 15 20 8 11 1011.5 1011.3 3.2
20/10:00pm 1.5 -4.0 0.5 93 0.4 W 19 24 10 13 1011.3 1011.1 3.2
20/09:30pm 1.7 -3.0 1.1 96 0.2 WSW 15 24 8 13 1011.5 1011.3 3.2
20/09:00pm 0.9 -2.7 0.5 97 0.2 SW 9 15 5 8 1012.0 1011.9 3.0
20/08:30pm 1.7 -4.3 1.0 95 0.3 WSW 22 30 12 16 1012.1 1012.0 1.8
20/08:00pm 2.1 -3.3 1.2 94 0.4 WSW 19 26 10 14 1011.6 1011.5 0.8
20/07:30pm 3.4 1.1 2.7 95 0.3 NE 4 7 2 4 1010.7 1010.6 0.0
20/07:00pm 3.1 0.7 2.2 94 0.4 E 4 7 2 4 1010.6 1010.5 0.0
20/06:30pm 2.9 -0.2 1.6 91 0.5 SE 7 11 4 6 1010.3 1010.1 0.0
20/06:00pm 3.3 -0.7 0.2 80 1.2 S 11 17 6 9 1009.4 1009.3 0.0
20/05:30pm 6.0 1.1 -0.5 63 2.6 W 15 19 8 10 1009.2 1009.0 0.0
20/05:00pm 6.8 0.6 -0.4 60 2.9 WNW 22 30 12 16 1008.9 1008.7 0.0
20/04:30pm 6.4 -2.2 0.5 66 2.4 WNW 35 52 19 28 1008.6 1008.4 0.0
20/04:00pm 7.3 -4.8 -1.9 52 3.6 W 52 82 28 44 1007.6 1007.4 0.0
20/03:53pm 7.4 -3.7 -2.9 48 3.9 WNW 46 82 25 44 1007.2 1007.0 0.0
20/03:30pm 6.1 -2.0 0.9 69 2.2 W 33 52 18 28 1008.0 1007.8 0.0
20/03:27pm 5.6 -3.7 0.6 70 2.0 WSW 39 57 21 31 1007.9 1007.7 0.0
20/03:14pm 8.8 0.7 -0.2 53 3.7 WNW 32 61 17 33 1007.7 1007.5 0.0
20/03:13pm 9.6 2.3 0.0 51 4.0 WNW 28 54 15 29 1007.6 1007.4 0.0
20/03:00pm 10.3 2.7 0.3 50 4.3 NW 30 39 16 21 1007.2 1007.0 0.0
20/02:30pm 11.1 2.7 -0.7 44 4.9 WNW 33 46 18 25 1007.0 1006.7 0.0
20/02:00pm 10.4 2.4 0.4 50 4.3 WNW 32 41 17 22 1007.3 1007.1 0.0
20/01:30pm 9.4 1.3 0.8 55 3.7 WNW 33 46 18 25 1007.5 1007.3 0.0
20/01:00pm 9.6 0.5 2.0 59 3.4 WNW 39 63 21 34 1007.9 1007.7 0.0
20/12:30pm 10.6 2.1 3.2 60 3.4 WNW 37 57 20 31 1008.1 1008.0 0.0
20/12:00pm 10.6 3.2 3.9 63 3.1 WNW 32 52 17 28 1008.0 1007.8 0.0
20/11:35am 10.1 1.5 4.5 68 2.6 W 39 57 21 31 1008.4 1008.2 0.0
20/11:30am 10.1 0.7 4.5 68 2.6 W 43 57 23 31 1008.6 1008.4 0.0
20/11:08am 11.3 0.9 4.1 61 3.4 WNW 48 69 26 37 1008.5 1008.3 0.0
20/11:00am 11.3 0.8 3.8 60 3.5 WNW 48 65 26 35 1008.1 1008.0 0.0
20/10:42am 12.1 2.9 3.6 56 4.0 WNW 41 69 22 37 1008.0 1007.8 0.0
20/10:30am 12.3 3.5 3.8 56 4.0 WNW 39 52 21 28 1008.2 1008.1 0.0
20/10:01am 12.1 2.3 3.3 55 4.1 WNW 44 63 24 34 1008.1 1008.0 0.0
20/10:00am 12.0 2.1 3.0 54 4.1 WNW 44 63 24 34 1008.1 1008.0 0.0
20/09:30am 12.1 2.5 3.3 55 4.1 WNW 43 61 23 33 1008.5 1008.3 0.0
20/09:10am 12.6 3.8 3.6 54 4.2 WNW 39 65 21 35 1008.4 1008.2 0.0
20/09:00am 12.5 3.7 3.5 54 4.2 WNW 39 52 21 28 1008.6 1008.4 0.0
20/08:37am 12.0 3.2 3.5 56 3.9 WNW 39 61 21 33 1008.6 1008.4 0.0
20/08:30am 11.9 3.1 3.7 57 3.8 WNW 39 52 21 28 1008.9 1008.7 0.0
20/08:00am 11.2 3.5 3.5 59 3.6 WNW 33 43 18 23 1009.2 1009.0 0.0
20/07:46am 10.9 2.8 3.2 59 3.5 WNW 35 54 19 29 1009.2 1009.0 0.0
20/07:30am 10.7 3.9 3.3 60 3.4 WNW 28 39 15 21 1009.4 1009.3 0.0
20/07:00am 10.0 2.9 3.3 63 3.1 WNW 30 43 16 23 1009.5 1009.4 0.0
20/06:30am 9.6 2.1 3.4 65 2.8 WNW 32 46 17 25 1009.3 1009.2 0.0
20/06:00am 9.3 1.7 3.1 65 2.8 WNW 32 48 17 26 1009.1 1008.9 0.0
20/05:52am 9.2 2.0 3.0 65 2.8 NW 30 48 16 26 1009.0 1008.8 0.0
20/05:30am 9.4 1.8 2.7 63 3.0 NW 32 44 17 24 1009.1 1008.9 0.0
20/05:00am 10.2 1.2 2.3 58 3.5 NW 39 54 21 29 1009.1 1008.9 0.0
20/04:36am 10.5 2.5 1.6 54 3.9 NW 33 54 18 29 1009.2 1009.0 0.0
20/04:30am 10.9 1.7 1.4 52 4.2 WNW 39 54 21 29 1009.3 1009.2 0.0
20/04:18am 10.6 3.1 1.2 52 4.1 WNW 30 50 16 27 1009.3 1009.2 0.0
20/04:00am 10.5 2.9 0.8 51 4.2 WNW 30 41 16 22 1009.3 1009.2 0.0
20/03:30am 10.9 2.8 0.9 50 4.3 WNW 33 46 18 25 1009.3 1009.2 0.0
20/03:00am 10.8 3.2 0.5 49 4.4 WNW 30 43 16 23 1009.5 1009.4 0.0
20/02:30am 9.9 3.8 0.3 51 4.1 WNW 22 33 12 18 1010.3 1010.1 0.0
20/02:00am 10.2 4.1 0.5 51 4.2 WNW 22 32 12 17 1010.7 1010.6 0.0
20/01:30am 9.1 2.6 0.6 55 3.6 NW 24 35 13 19 1010.9 1010.8 0.0
20/01:00am 10.4 3.5 0.2 49 4.3 WNW 26 35 14 19 1011.6 1011.5 0.0
20/12:30am 10.3 3.8 0.6 51 4.2 NW 24 37 13 20 1011.9 1011.8 0.0
20/12:00am 8.3 3.2 1.0 60 3.1 NNW 17 22 9 12 1012.4 1012.3 0.0
 
Date/Time
EST
Temp
°C
App
Temp
°C
Dew
Point
°C
Rel
Hum
%
Delta-T
°C
Wind Press
QNH
hPa
Press
MSL
hPa
Rain since
9am
mm
Dir  Spd
km/h
Gust
km/h
Spd
kts
Gust
kts
19/11:30pm 10.0 1.5 1.1 54 3.8 NW 35 44 19 24 1012.1 1012.0 0.0
19/11:23pm 9.7 2.6 1.4 56 3.6 NW 28 41 15 22 1012.3 1012.2 0.0
19/11:00pm 7.3 4.1 1.0 64 2.6 N 7 9 4 5 1013.1 1013.0 0.0
19/10:30pm 8.9 5.8 1.3 59 3.3 NNE 7 11 4 6 1013.6 1013.5 0.0
19/10:00pm 7.0 2.0 1.3 67 2.4 NNW 17 24 9 13 1014.1 1014.0 0.0
19/09:30pm 6.7 0.0 1.6 70 2.2 NNW 26 28 14 15 1014.0 1013.9 0.0
19/09:00pm 7.2 1.9 1.7 68 2.3 NNW 19 24 10 13 1014.6 1014.5 0.0
19/08:30pm 6.8 1.8 1.5 69 2.2 NW 17 20 9 11 1015.0 1015.0 0.0
19/08:00pm 7.6 2.7 1.7 66 2.5 NW 17 22 9 12 1015.2 1015.2 0.0
19/07:30pm 7.4 2.5 1.7 67 2.4 NW 17 19 9 10 1015.1 1015.1 0.0
19/07:00pm 7.6 3.3 1.0 63 2.8 NW 13 17 7 9 1015.2 1015.2 0.0
19/06:30pm 8.7 4.8 1.4 60 3.1 N 11 17 6 9 1015.1 1015.1 0.0
19/06:00pm 9.8 2.3 1.5 56 3.6 NW 30 43 16 23 1015.1 1015.1 0.0
19/05:32pm 10.7 2.3 1.3 52 4.1 WNW 35 56 19 30 1015.0 1015.0 0.0
19/05:30pm 10.6 1.8 1.2 52 4.1 WNW 37 56 20 30 1015.0 1015.0 0.0
19/05:20pm 11.1 2.2 0.8 49 4.5 NW 37 57 20 31 1014.7 1014.6 0.0
19/05:00pm 11.5 1.8 0.6 47 4.7 WNW 41 56 22 30 1014.8 1014.7 0.0
19/04:30pm 12.0 2.7 0.8 46 4.9 WNW 39 57 21 31 1014.7 1014.6 0.0
19/04:02pm 12.6 4.3 0.0 42 5.4 WNW 33 52 18 28 1014.8 1014.7 0.0
19/04:00pm 12.8 4.3 0.9 44 5.3 WNW 35 52 19 28 1014.9 1014.9 0.0
19/03:59pm 12.7 4.6 0.8 44 5.2 WNW 33 52 18 28 1014.9 1014.9 0.0
19/03:30pm 13.1 4.9 0.5 42 5.5 WNW 33 44 18 24 1014.9 1014.9 0.0
19/03:00pm 13.6 6.1 0.9 42 5.6 NW 30 39 16 21 1014.9 1014.9 0.0
19/02:40pm 13.4 6.6 1.1 43 5.5 WNW 26 33 14 18 1015.0 1015.0 0.0
19/02:30pm 13.9 5.1 1.2 42 5.7 NW 37 46 20 25 1015.0 1015.0 0.0
19/02:00pm 13.6 4.6 -0.1 39 6.0 NW 37 48 20 26 1015.0 1015.0 0.0
19/01:30pm 14.0 6.4 0.3 39 6.0 WNW 30 43 16 23 1015.1 1015.1 0.0
19/01:00pm 14.6 7.0 0.8 39 6.2 WNW 30 43 16 23 1015.2 1015.2 0.0
19/12:30pm 14.1 5.0 -0.7 36 6.4 NW 37 48 20 26 1015.4 1015.3 0.0
19/12:00pm 13.7 5.0 -0.7 37 6.2 NW 35 46 19 25 1015.9 1015.8 0.0
19/11:30am 13.2 5.1 -0.4 39 5.9 NW 32 46 17 25 1016.0 1015.9 0.0
19/11:00am 13.2 5.5 -0.1 40 5.8 WNW 30 44 16 24 1016.4 1016.4 0.0
19/10:30am 12.3 4.7 0.7 45 5.1 NW 30 41 16 22 1016.8 1016.7 0.0
19/10:00am 11.3 4.5 1.0 49 4.5 NW 26 37 14 20 1017.4 1017.4 0.0

Other formats

Comma delimited format used in spreadsheet applications
http://www.bom.gov.au/fwo/IDN60801/IDN60801.94929.axf

JavaScript Object Notation format (JSON) in row-major order
http://www.bom.gov.au/fwo/IDN60801/IDN60801.94929.json

Data quality

Most of these data are generated automatically and are frequently updated. Quality checks on data are not normally performed. It is possible for incorrect values to appear. Refer to information at About Latest Weather Observations and please check the disclaimer before using these data.